LEGE Airport Information

Runway Information
Runway 01 Length 7874 ft width 148 ft Elevation 403 ft Threshold N/A Heading 14
Runway 19 Length 7874 ft Width 148 ft Elevation 469 ft Threshold N/A Heading 194
Airport Frequencies
Type APP Name APP Frequency 120.9 MHZ
Type GND Name GND Frequency 121.7 MHZ
Type TWR Name TWR Frequency 118.5 MHZ
Airport Navaids
Type VOR-DME Name Gerona Frequency 114100 KHZ
Type NDB Name Gerona Frequency 412 KHZ
Airport Weather Information & NOTAM
ADDS - METARS form results

(1558 UTC 07 December 2022)
Data provider http://aviationweather.gov/metar/data/
 
METAR text: LEGE 071530Z 18006KT 9999 BKN050 14/11 Q1012
Conditions at: LEGE (GERONA/COSTA BRA, ES) observed 1530 UTC 07 December 2022
Temperature: 14.0°C (57°F)
Dewpoint: 11.0°C (52°F) [RH = 82%]
Pressure (altimeter): 29.88 inches Hg (1012.0 mb)
Winds: from the S (180 degrees) at 7 MPH (6 knots; 3.1 m/s)
Visibility: 6 or more miles (10+ km)
Ceiling: 5000 feet AGL
Clouds: broken clouds at 5000 feet AGL
Weather: no significant weather observed at this time

METAR text: LEGE 071500Z 16004KT 9999 SCT050 15/11 Q1012
Conditions at: LEGE (GERONA/COSTA BRA, ES) observed 1500 UTC 07 December 2022
Temperature: 15.0°C (59°F)
Dewpoint: 11.0°C (52°F) [RH = 77%]
Pressure (altimeter): 29.88 inches Hg (1012.0 mb)
Winds: from the SSE (160 degrees) at 5 MPH (4 knots; 2.1 m/s)
Visibility: 6 or more miles (10+ km)
Ceiling: at least 12,000 feet AGL
Clouds: scattered clouds at 5000 feet AGL
Weather: no significant weather observed at this time

Forecast for: LEGE (GERONA/COSTA BRA, ES)
Text: TAF LEGE 071100Z 0712/0812 VRB03KT 9999 FEW010 TX16/0713Z TN06/0806Z
Forecast period: 1200 UTC 07 December 2022 to 1200 UTC 08 December 2022
Forecast type: FROM: standard forecast or significant change
Winds: variable direction winds at 3 MPH (3 knots; 1.5 m/s)
Visibility: 6 or more miles (10+ km)
Ceiling: at least 12,000 feet AGL
Clouds: few clouds at 1000 feet AGL
Weather: no significant weather forecast for this period
Text: TEMPO 0712/0716 18008KT
Forecast period: 1200 to 1600 UTC 07 December 2022
Forecast type: TEMPORARY: The following changes expected for less than half the time period
Winds: from the S (180 degrees) at 9 MPH (8 knots; 4.1 m/s)
Visibility: missing
Ceiling: unknown
Clouds: missing
Weather: no significant weather forecast for this period
Text: TEMPO 0717/0810 2000 BR BKN004
Forecast period: 1700 UTC 07 December 2022 to 1000 UTC 08 December 2022
Forecast type: TEMPORARY: The following changes expected for less than half the time period
Visibility: 1.24 miles (2.00 km)
Ceiling: 400 feet AGL
Clouds: broken clouds at 400 feet AGL
Weather: BR  (mist)
Text: PROB40
Forecast period: 1800 UTC 07 December 2022 to 0800 UTC 08 December 2022
Forecast type: TEMPORARY: The following changes expected for less than half the time period
Visibility: 0.19 miles (0.31 km)
Ceiling: indefinite ceiling with vertical visibility of 100 feet AGL
Clouds: obscured sky
Weather: FG  (fog)